Time;durP1;ratioP1;P1;durP2;ratioP2;P2;SDS_P1;SDS_P2;PMS_P1;PMS_P2;Temp;Humidity;BMP_temperature;BMP_pressure;BME280_temperature;BME280_humidity;BME280_pressure;Samples;Min_cycle;Max_cycle;Signal;HPM_P1;HPM_P2
2023/07/05 00:01:02;;;;;;;10.18;6.38;;;17.40;99.90;;;;;;5057412;28;20209;-75
2023/07/05 00:03:31;;;;;;;7.60;5.18;;;17.50;99.90;;;;;;5057155;28;20534;-75
2023/07/05 00:06:05;;;;;;;10.52;5.80;;;17.50;99.90;;;;;;5076480;28;20200;-77
2023/07/05 00:08:37;;;;;;;15.57;5.35;;;17.70;99.90;;;;;;5075070;28;20661;-77
2023/07/05 00:11:09;;;;;;;7.85;5.38;;;17.80;99.90;;;;;;5074325;28;20204;-76
2023/07/05 00:13:43;;;;;;;6.43;4.53;;;17.90;99.90;;;;;;5056210;28;20214;-77
2023/07/05 00:16:12;;;;;;;10.43;4.90;;;18.20;99.90;;;;;;5056288;28;20185;-76
2023/07/05 00:18:42;;;;;;;5.63;4.35;;;18.20;99.90;;;;;;5074394;28;20174;-78
2023/07/05 00:21:13;;;;;;;7.82;4.22;;;18.30;99.90;;;;;;5056281;28;20186;-76
2023/07/05 00:23:46;;;;;;;6.75;3.90;;;18.30;99.90;;;;;;5073869;28;20237;-77
2023/07/05 00:26:14;;;;;;;7.93;4.32;;;18.30;99.90;;;;;;5074169;28;20185;-76
2023/07/05 00:28:42;;;;;;;6.32;3.85;;;18.30;99.90;;;;;;5055915;28;20177;-77
2023/07/05 00:31:12;;;;;;;5.55;4.30;;;18.30;99.90;;;;;;5074258;28;20197;-77
2023/07/05 00:33:46;;;;;;;5.85;3.78;;;18.20;99.90;;;;;;5074293;28;20163;-76
2023/07/05 00:36:14;;;;;;;5.68;4.05;;;18.20;99.90;;;;;;5056068;28;20611;-75
2023/07/05 00:38:45;;;;;;;4.85;3.95;;;18.20;99.90;;;;;;5073815;28;20202;-77
2023/07/05 00:41:17;;;;;;;7.65;4.10;;;18.20;99.90;;;;;;5074128;28;20155;-76
2023/07/05 00:43:50;;;;;;;9.07;4.13;;;18.10;99.90;;;;;;5076054;28;20185;-75
2023/07/05 00:46:25;;;;;;;6.18;4.28;;;18.10;99.90;;;;;;5059783;28;20642;-76
2023/07/05 00:48:59;;;;;;;7.10;4.40;;;18.00;99.90;;;;;;5077976;28;20240;-76
2023/07/05 00:51:35;;;;;;;6.63;4.00;;;17.90;99.90;;;;;;5077647;28;20208;-75
2023/07/05 00:54:05;;;;;;;9.30;4.70;;;17.80;99.90;;;;;;5059729;28;20202;-75
2023/07/05 00:56:47;;;;;;;7.25;4.32;;;17.50;99.90;;;;;;5059497;28;20170;-76
2023/07/05 00:59:14;;;;;;;12.23;5.13;;;17.40;99.90;;;;;;5077583;28;20193;-76
2023/07/05 01:01:43;;;;;;;7.03;5.03;;;17.30;99.90;;;;;;5077780;28;20228;-77
2023/07/05 01:04:12;;;;;;;8.27;4.60;;;17.10;99.90;;;;;;5077287;28;20515;-76
2023/07/05 01:06:44;;;;;;;7.18;4.35;;;17.00;99.90;;;;;;5059315;28;20559;-77
2023/07/05 01:09:13;;;;;;;5.60;4.38;;;16.90;99.90;;;;;;5059017;28;20718;-77
2023/07/05 01:11:55;;;;;;;8.18;4.72;;;16.90;99.90;;;;;;5076943;28;20575;-77
2023/07/05 01:14:40;;;;;;;7.35;4.57;;;16.80;99.90;;;;;;5077067;28;20162;-76
2023/07/05 01:17:32;;;;;;;8.50;4.40;;;16.80;99.90;;;;;;5039259;28;20223;-77
2023/07/05 01:20:23;;;;;;;6.40;4.38;;;16.70;99.90;;;;;;5040268;28;20198;-78
2023/07/05 01:23:21;;;;;;;7.40;4.50;;;16.70;99.90;;;;;;5039736;28;20265;-79
2023/07/05 01:26:06;;;;;;;9.80;4.72;;;16.70;99.90;;;;;;5057992;28;20179;-76
2023/07/05 01:29:06;;;;;;;7.57;4.78;;;16.70;99.90;;;;;;5057326;28;20186;-78
2023/07/05 01:32:10;;;;;;;7.78;4.82;;;16.70;99.90;;;;;;5038821;28;20203;-77
2023/07/05 01:35:12;;;;;;;6.40;4.18;;;16.70;99.90;;;;;;5056542;28;20174;-76
2023/07/05 01:37:44;;;;;;;7.57;4.57;;;16.60;99.90;;;;;;5056913;28;20178;-77
2023/07/05 01:40:25;;;;;;;9.23;4.57;;;16.60;99.90;;;;;;5056689;28;20198;-78
2023/07/05 01:43:02;;;;;;;5.78;4.38;;;16.60;99.90;;;;;;5039223;28;20212;-78
2023/07/05 01:45:50;;;;;;;8.75;5.32;;;16.50;99.90;;;;;;5048710;28;20192;-79
2023/07/05 01:48:40;;;;;;;11.45;5.10;;;16.50;99.90;;;;;;5059582;28;20691;-79
2023/07/05 01:51:26;;;;;;;6.97;4.65;;;16.40;99.90;;;;;;5059247;28;20251;-79
2023/07/05 01:54:10;;;;;;;9.48;5.25;;;16.40;99.90;;;;;;5076846;28;20211;-78
2023/07/05 01:56:59;;;;;;;8.30;4.75;;;16.30;99.90;;;;;;5058559;28;20201;-79
2023/07/05 01:59:34;;;;;;;8.68;4.50;;;16.20;99.90;;;;;;5059235;28;20607;-78
2023/07/05 02:02:04;;;;;;;7.45;5.25;;;16.10;99.90;;;;;;5077385;28;20181;-77
2023/07/05 02:04:35;;;;;;;8.70;4.90;;;16.00;99.90;;;;;;5058546;28;20166;-77
2023/07/05 02:07:04;;;;;;;7.00;5.10;;;16.00;99.90;;;;;;5076205;28;20189;-77
2023/07/05 02:09:37;;;;;;;9.80;5.43;;;15.90;99.90;;;;;;5057641;28;20198;-77
2023/07/05 02:12:05;;;;;;;9.85;5.50;;;15.90;99.90;;;;;;5058290;28;20203;-77
2023/07/05 02:14:31;;;;;;;7.55;4.97;;;15.80;99.90;;;;;;5075937;28;20646;-77
2023/07/05 02:17:02;;;;;;;11.02;5.80;;;15.80;99.90;;;;;;5076032;28;20178;-76
2023/07/05 02:19:28;;;;;;;6.30;5.07;;;15.80;99.90;;;;;;5058111;28;20198;-76
2023/07/05 02:21:54;;;;;;;5.93;4.70;;;15.80;99.90;;;;;;5057819;28;20177;-77
2023/07/05 02:24:22;;;;;;;6.35;5.38;;;15.80;99.90;;;;;;5057908;28;20178;-77
2023/07/05 02:26:56;;;;;;;6.53;5.10;;;15.80;99.90;;;;;;5058059;28;20181;-77
2023/07/05 02:29:29;;;;;;;8.23;5.32;;;15.90;99.90;;;;;;5075869;28;20614;-76
2023/07/05 02:31:57;;;;;;;8.77;4.80;;;15.90;99.90;;;;;;5076718;28;20284;-78
2023/07/05 02:34:24;;;;;;;5.03;4.35;;;15.90;99.90;;;;;;5058270;28;20238;-78
2023/07/05 02:36:49;;;;;;;7.15;4.90;;;15.90;99.90;;;;;;5058660;28;20174;-78
2023/07/05 02:39:18;;;;;;;4.90;4.32;;;15.90;99.90;;;;;;5058653;28;20193;-78
2023/07/05 02:41:44;;;;;;;6.63;4.95;;;16.00;99.90;;;;;;5058522;28;20240;-78
2023/07/05 02:44:14;;;;;;;6.80;4.55;;;16.00;99.90;;;;;;5058812;28;20186;-78
2023/07/05 02:46:43;;;;;;;7.88;4.60;;;16.00;99.90;;;;;;5076578;28;20180;-78
2023/07/05 02:49:12;;;;;;;5.75;4.22;;;16.10;99.90;;;;;;5058556;28;20219;-78
2023/07/05 02:51:44;;;;;;;4.90;3.90;;;16.10;99.90;;;;;;5057884;28;20743;-78
2023/07/05 02:54:15;;;;;;;4.70;4.18;;;16.10;99.90;;;;;;5058228;28;20169;-78
2023/07/05 02:56:51;;;;;;;6.00;4.20;;;16.10;99.90;;;;;;5058470;28;20188;-78
2023/07/05 02:59:19;;;;;;;5.07;4.15;;;16.20;99.90;;;;;;5076349;28;20752;-77
2023/07/05 03:01:53;;;;;;;5.53;4.28;;;16.20;99.90;;;;;;5076436;28;20182;-78
2023/07/05 03:04:21;;;;;;;7.47;4.43;;;16.20;99.90;;;;;;5075737;28;20549;-76
2023/07/05 03:06:47;;;;;;;6.60;4.38;;;16.30;99.90;;;;;;5075343;28;20193;-75
2023/07/05 03:09:23;;;;;;;6.28;4.30;;;16.30;99.90;;;;;;5076328;28;20198;-77
2023/07/05 03:11:49;;;;;;;6.00;4.03;;;16.40;99.90;;;;;;5057520;28;20193;-76
2023/07/05 03:14:15;;;;;;;5.95;4.40;;;16.40;99.90;;;;;;5076206;28;20177;-76
2023/07/05 03:16:43;;;;;;;6.20;3.85;;;16.40;99.90;;;;;;5075494;28;20223;-76
2023/07/05 03:19:09;;;;;;;5.55;4.18;;;16.50;99.90;;;;;;5057809;28;20280;-76
2023/07/05 03:21:36;;;;;;;5.68;3.90;;;16.50;99.90;;;;;;5094065;22;20205;-84
2023/07/05 03:24:01;;;;;;;6.15;4.05;;;16.50;99.90;;;;;;5097871;28;20219;-84
2023/07/05 03:26:27;;;;;;;6.00;4.30;;;16.40;99.90;;;;;;5106473;28;20648;-83
2023/07/05 03:28:53;;;;;;;7.80;4.20;;;16.40;99.90;;;;;;5117158;28;20217;-82
2023/07/05 03:31:18;;;;;;;4.75;4.15;;;16.30;99.90;;;;;;5098697;28;20249;-82
2023/07/05 03:33:44;;;;;;;8.43;4.60;;;16.20;99.90;;;;;;5098901;28;20528;-81
2023/07/05 03:36:13;;;;;;;7.40;4.28;;;16.20;99.90;;;;;;5116678;28;20652;-81
2023/07/05 03:38:39;;;;;;;5.72;4.50;;;16.20;99.90;;;;;;5098422;28;20180;-85
2023/07/05 03:41:14;;;;;;;5.85;4.65;;;16.10;99.90;;;;;;5117298;28;20176;-81
2023/07/05 03:43:41;;;;;;;5.40;4.03;;;16.10;99.90;;;;;;5099856;28;20180;-81
2023/07/05 03:46:10;;;;;;;4.97;4.47;;;16.10;99.90;;;;;;5099970;28;20196;-81
2023/07/05 03:48:38;;;;;;;5.45;4.50;;;16.00;99.90;;;;;;5117050;28;20175;-81
2023/07/05 03:51:04;;;;;;;5.82;4.72;;;16.10;99.90;;;;;;5116828;28;20196;-80
2023/07/05 03:53:33;;;;;;;9.02;4.75;;;16.00;99.90;;;;;;5116843;28;20179;-80
2023/07/05 03:56:04;;;;;;;6.07;4.60;;;16.00;99.90;;;;;;5116860;28;20195;-81
2023/07/05 03:58:30;;;;;;;6.00;4.53;;;16.00;99.90;;;;;;5098481;28;20360;-81
2023/07/05 04:01:14;;;;;;;6.97;4.50;;;16.10;99.90;;;;;;5098602;28;20204;-86
2023/07/05 04:03:40;;;;;;;9.40;5.60;;;16.20;99.90;;;;;;5116492;28;20633;-86
2023/07/05 04:06:06;;;;;;;7.20;5.57;;;16.20;99.90;;;;;;5097425;28;20268;-86
2023/07/05 04:08:32;;;;;;;7.20;5.32;;;16.20;99.90;;;;;;5098061;28;20644;-86
2023/07/05 04:10:58;;;;;;;7.15;5.28;;;16.20;99.90;;;;;;5116434;28;20252;-86
2023/07/05 04:13:23;;;;;;;10.10;5.25;;;16.10;99.90;;;;;;5116232;28;20176;-86
2023/07/05 04:16:08;;;;;;;8.02;5.38;;;16.00;99.90;;;;;;5097463;28;20193;-87
2023/07/05 04:18:35;;;;;;;6.05;4.75;;;15.90;99.90;;;;;;5097747;28;20168;-85
2023/07/05 04:21:01;;;;;;;5.72;4.68;;;15.80;99.90;;;;;;5080686;28;20269;-84
2023/07/05 04:23:26;;;;;;;6.50;4.75;;;15.70;99.90;;;;;;5115628;28;20195;-83
2023/07/05 04:26:07;;;;;;;5.30;4.68;;;15.70;99.90;;;;;;5097045;28;20195;-84
2023/07/05 04:28:34;;;;;;;6.28;4.95;;;15.70;99.90;;;;;;5097633;28;20263;-85
2023/07/05 04:31:00;;;;;;;5.18;4.60;;;15.60;99.90;;;;;;5116252;28;20364;-84
2023/07/05 04:33:26;;;;;;;5.40;3.10;;;15.50;99.90;;;;;;5097658;28;20547;-84
2023/07/05 04:35:56;;;;;;;6.50;3.38;;;15.30;99.90;;;;;;5097321;28;20192;-83
2023/07/05 04:38:22;;;;;;;6.20;3.35;;;15.00;99.90;;;;;;5097033;28;20244;-83
2023/07/05 04:40:47;;;;;;;4.63;3.40;;;14.90;99.90;;;;;;5097366;28;20176;-83
2023/07/05 04:43:13;;;;;;;4.63;3.40;;;14.70;99.90;;;;;;5115608;28;20168;-83
2023/07/05 04:45:39;;;;;;;7.45;3.72;;;14.60;99.90;;;;;;5116107;28;20180;-83
2023/07/05 04:48:05;;;;;;;6.30;3.20;;;14.50;99.90;;;;;;5116214;28;20259;-81
2023/07/05 04:50:33;;;;;;;5.85;3.55;;;14.40;99.90;;;;;;5097201;28;20253;-81
2023/07/05 04:52:59;;;;;;;5.07;3.40;;;14.40;99.90;;;;;;5097402;28;20176;-80
2023/07/05 04:55:25;;;;;;;3.33;2.67;;;14.20;99.90;;;;;;5098809;28;20179;-81
2023/07/05 04:57:58;;;;;;;4.45;3.20;;;14.10;99.90;;;;;;5098514;28;20182;-81
2023/07/05 05:00:24;;;;;;;6.15;3.35;;;14.00;99.90;;;;;;5098346;28;20647;-80
2023/07/05 05:02:50;;;;;;;4.13;3.28;;;13.90;99.90;;;;;;5118509;28;20259;-81
2023/07/05 05:05:16;;;;;;;4.60;3.38;;;13.80;99.90;;;;;;5097063;28;20201;-80
2023/07/05 05:07:42;;;;;;;4.70;3.85;;;13.70;99.90;;;;;;5097093;28;20192;-81
2023/07/05 05:10:08;;;;;;;5.40;3.75;;;13.70;99.90;;;;;;5097121;28;20197;-80
2023/07/05 05:12:34;;;;;;;7.35;4.07;;;13.60;99.90;;;;;;5097083;28;20177;-81
2023/07/05 05:14:59;;;;;;;7.03;4.13;;;13.60;99.90;;;;;;5096575;28;20173;-81
2023/07/05 05:17:26;;;;;;;5.43;3.67;;;13.60;99.90;;;;;;5098981;28;20192;-80
2023/07/05 05:19:52;;;;;;;6.45;3.80;;;13.50;99.90;;;;;;5096707;28;20172;-80
2023/07/05 05:22:18;;;;;;;5.20;3.92;;;13.40;99.90;;;;;;5096130;28;20279;-81
2023/07/05 05:24:44;;;;;;;6.47;3.90;;;13.50;99.90;;;;;;5115992;28;20165;-82
2023/07/05 05:27:09;;;;;;;5.40;3.88;;;13.50;99.90;;;;;;5097848;28;20546;-81
2023/07/05 05:29:35;;;;;;;8.20;3.80;;;13.60;99.90;;;;;;5098851;28;20549;-81
2023/07/05 05:32:01;;;;;;;6.50;3.75;;;13.60;99.90;;;;;;5100764;28;20291;-81
2023/07/05 05:34:27;;;;;;;9.45;4.13;;;13.70;99.90;;;;;;5100851;28;20187;-82
2023/07/05 05:36:52;;;;;;;5.40;4.03;;;13.80;99.90;;;;;;5101018;28;20196;-82
2023/07/05 05:39:19;;;;;;;5.88;3.80;;;13.90;99.90;;;;;;5100391;28;20591;-82
2023/07/05 05:41:46;;;;;;;5.80;3.72;;;13.90;99.90;;;;;;5100817;28;20181;-82
2023/07/05 05:44:11;;;;;;;5.05;3.72;;;14.00;99.90;;;;;;5118443;28;20233;-82
2023/07/05 05:46:37;;;;;;;5.80;4.00;;;14.00;99.90;;;;;;5118543;28;20652;-82
2023/07/05 05:49:03;;;;;;;5.13;3.55;;;14.10;99.90;;;;;;5100688;28;20200;-82
2023/07/05 05:51:29;;;;;;;5.93;3.70;;;14.20;99.90;;;;;;5118667;28;20227;-82
2023/07/05 05:53:55;;;;;;;5.95;3.78;;;14.20;99.90;;;;;;5101386;28;20172;-82
2023/07/05 05:56:20;;;;;;;5.55;3.65;;;14.20;99.90;;;;;;5103131;28;20249;-83
2023/07/05 05:58:46;;;;;;;5.53;3.70;;;14.30;99.90;;;;;;5103822;28;20263;-83
2023/07/05 06:01:12;;;;;;;4.63;3.80;;;14.40;99.90;;;;;;5101248;28;20180;-82
2023/07/05 06:03:38;;;;;;;4.18;3.47;;;14.50;99.90;;;;;;5101272;28;20524;-83
2023/07/05 06:06:05;;;;;;;5.68;3.78;;;14.60;99.90;;;;;;5118968;28;20196;-83
2023/07/05 06:08:32;;;;;;;7.47;3.47;;;14.70;99.90;;;;;;5121122;28;20175;-83
2023/07/05 06:10:59;;;;;;;7.97;4.20;;;14.80;99.90;;;;;;5102678;28;20211;-83
2023/07/05 06:13:27;;;;;;;5.43;3.60;;;15.00;99.90;;;;;;5102169;28;20179;-83
2023/07/05 06:15:57;;;;;;;5.10;3.75;;;15.10;99.90;;;;;;5099726;28;20291;-84
2023/07/05 06:18:25;;;;;;;6.93;3.88;;;15.00;99.90;;;;;;5100012;28;20168;-83
2023/07/05 06:20:50;;;;;;;6.18;3.88;;;14.90;99.90;;;;;;5100144;28;20177;-83
2023/07/05 06:23:17;;;;;;;8.43;4.05;;;14.90;99.90;;;;;;5099702;28;20196;-83
2023/07/05 06:25:48;;;;;;;4.63;3.80;;;14.90;99.90;;;;;;5118078;28;20279;-84
2023/07/05 06:28:18;;;;;;;6.13;4.00;;;14.90;99.90;;;;;;5099753;28;20207;-83
2023/07/05 06:30:45;;;;;;;6.22;4.25;;;14.80;99.90;;;;;;5099486;28;20207;-83
2023/07/05 06:33:12;;;;;;;8.38;4.43;;;14.90;99.90;;;;;;5117870;28;20655;-82
2023/07/05 06:35:38;;;;;;;4.90;3.80;;;15.00;99.90;;;;;;5099887;28;20225;-82
2023/07/05 06:38:03;;;;;;;8.18;4.40;;;15.10;99.90;;;;;;5101572;28;20176;-82
2023/07/05 06:40:29;;;;;;;10.05;4.47;;;15.20;99.90;;;;;;5101335;28;20191;-83
2023/07/05 06:42:55;;;;;;;6.05;4.15;;;15.30;99.90;;;;;;5118896;28;20168;-83
2023/07/05 06:45:21;;;;;;;5.82;4.05;;;15.20;99.90;;;;;;5118400;28;20178;-83
2023/07/05 06:47:48;;;;;;;6.88;4.30;;;15.10;99.90;;;;;;5103236;28;20283;-83
2023/07/05 06:50:14;;;;;;;5.85;4.05;;;14.90;99.90;;;;;;5124935;28;20249;-85
2023/07/05 06:52:39;;;;;;;6.70;4.25;;;14.80;99.90;;;;;;5104742;28;20668;-84
2023/07/05 06:55:06;;;;;;;7.25;4.38;;;14.80;99.90;;;;;;5103698;28;20172;-83
2023/07/05 06:57:32;;;;;;;8.73;4.40;;;14.70;99.90;;;;;;5121758;28;20224;-83
2023/07/05 06:59:58;;;;;;;7.65;4.13;;;14.70;99.90;;;;;;5119601;28;20222;-84
2023/07/05 07:02:24;;;;;;;8.93;4.30;;;14.70;99.90;;;;;;5100301;28;20176;-83
2023/07/05 07:04:50;;;;;;;7.95;4.07;;;14.60;99.90;;;;;;5117803;28;20183;-83
2023/07/05 07:07:16;;;;;;;6.93;4.68;;;14.70;99.90;;;;;;5099391;28;20268;-83
2023/07/05 07:09:42;;;;;;;6.00;3.92;;;14.80;99.90;;;;;;5099051;28;20183;-83
2023/07/05 07:12:08;;;;;;;4.78;3.63;;;14.70;99.90;;;;;;5098701;28;20213;-83
2023/07/05 07:14:35;;;;;;;6.82;3.88;;;14.80;99.90;;;;;;5098448;28;20176;-83
2023/07/05 07:17:00;;;;;;;6.63;3.88;;;14.90;99.90;;;;;;5098810;28;20196;-83
2023/07/05 07:19:26;;;;;;;7.28;3.90;;;15.10;99.90;;;;;;5098518;28;20267;-83
2023/07/05 07:21:52;;;;;;;5.85;3.47;;;15.20;80.50;;;;;;5116531;28;20227;-84
2023/07/05 07:24:18;;;;;;;5.90;3.88;;;15.20;84.20;;;;;;5116320;28;20532;-83
2023/07/05 07:26:43;;;;;;;4.60;3.45;;;15.40;99.90;;;;;;5117030;28;20196;-83
2023/07/05 07:29:10;;;;;;;7.22;4.05;;;15.50;2.90;;;;;;5098730;28;20180;-83
2023/07/05 07:31:36;;;;;;;5.38;3.38;;;15.60;76.70;;;;;;5098618;28;20232;-84
2023/07/05 07:34:05;;;;;;;8.65;3.58;;;15.70;19.60;;;;;;5099223;28;20241;-84
2023/07/05 07:36:33;;;;;;;5.15;3.17;;;15.80;21.60;;;;;;5117333;28;20198;-83
2023/07/05 07:38:59;;;;;;;8.40;4.10;;;15.80;1.00;;;;;;5098226;28;20207;-83
2023/07/05 07:41:30;;;;;;;6.25;3.63;;;15.80;1.00;;;;;;5097754;28;20545;-85
2023/07/05 07:44:00;;;;;;;6.38;3.45;;;15.70;1.00;;;;;;5098212;28;20207;-84
2023/07/05 07:46:27;;;;;;;6.57;3.38;;;15.60;13.60;;;;;;5115756;28;20220;-82
2023/07/05 07:48:55;;;;;;;6.40;3.30;;;15.50;1.00;;;;;;5115871;28;20218;-83
2023/07/05 07:51:24;;;;;;;4.93;3.67;;;15.30;1.00;;;;;;5097996;28;20196;-84
2023/07/05 07:53:51;;;;;;;7.03;3.38;;;15.20;1.00;;;;;;5097450;28;20172;-83
2023/07/05 07:56:19;;;;;;;5.15;3.00;;;15.10;55.10;;;;;;5098071;28;20188;-84
2023/07/05 07:58:48;;;;;;;5.75;3.60;;;15.10;99.90;;;;;;5097830;28;20215;-84
2023/07/05 08:01:32;;;;;;;5.53;3.13;;;15.10;92.70;;;;;;5097975;28;20176;-83
2023/07/05 08:04:01;;;;;;;6.40;3.45;;;15.00;99.90;;;;;;5116033;28;20544;-83
2023/07/05 08:06:38;;;;;;;4.22;3.22;;;15.10;46.60;;;;;;5097766;28;20196;-83
2023/07/05 08:09:18;;;;;;;5.95;3.17;;;15.20;99.90;;;;;;5097734;28;20548;-84
2023/07/05 08:11:44;;;;;;;7.22;3.90;;;15.20;45.70;;;;;;5097940;28;20686;-84
2023/07/05 08:14:13;;;;;;;4.68;3.33;;;15.20;26.80;;;;;;5097474;28;20180;-84
2023/07/05 08:16:40;;;;;;;6.13;3.80;;;15.30;67.40;;;;;;5116201;28;20192;-84
2023/07/05 08:19:06;;;;;;;6.13;3.47;;;15.30;41.80;;;;;;5097561;28;20546;-84
2023/07/05 08:21:31;;;;;;;5.38;3.28;;;15.40;9.50;;;;;;5115567;28;20199;-83
2023/07/05 08:23:57;;;;;;;6.85;3.17;;;15.30;28.70;;;;;;5115592;28;20188;-84
2023/07/05 08:26:23;;;;;;;6.45;3.10;;;15.20;31.10;;;;;;5115672;28;20705;-83
2023/07/05 08:28:49;;;;;;;6.55;3.03;;;15.10;97.80;;;;;;5097749;28;20237;-83
2023/07/05 08:31:15;;;;;;;4.53;3.13;;;15.00;99.90;;;;;;5097582;28;20204;-83
2023/07/05 08:33:41;;;;;;;5.75;3.55;;;14.90;99.90;;;;;;5115667;28;20507;-83
2023/07/05 08:36:15;;;;;;;5.57;3.40;;;14.80;99.90;;;;;;5097380;28;20192;-84
2023/07/05 08:38:50;;;;;;;5.38;2.97;;;14.70;99.90;;;;;;5097538;28;20270;-83
2023/07/05 08:41:23;;;;;;;7.78;3.20;;;14.40;99.90;;;;;;5097446;28;20226;-83
2023/07/05 08:43:56;;;;;;;6.85;3.20;;;14.30;99.90;;;;;;5115832;28;20201;-83
2023/07/05 08:46:24;;;;;;;11.75;3.13;;;14.20;99.90;;;;;;5097273;28;20196;-83
2023/07/05 08:49:02;;;;;;;4.03;3.10;;;14.20;99.90;;;;;;5097500;28;20188;-83
2023/07/05 08:51:30;;;;;;;5.88;2.90;;;14.30;99.90;;;;;;5096704;28;20199;-83
2023/07/05 08:54:00;;;;;;;5.03;3.10;;;14.40;99.90;;;;;;5115495;28;20168;-82
2023/07/05 08:56:31;;;;;;;6.88;3.13;;;14.60;99.90;;;;;;5096866;28;20665;-83
2023/07/05 08:59:00;;;;;;;4.25;2.90;;;14.70;99.90;;;;;;5097053;28;20175;-83
2023/07/05 09:01:33;;;;;;;3.50;2.95;;;14.70;99.90;;;;;;5097189;28;20657;-83
2023/07/05 09:03:58;;;;;;;6.20;2.95;;;14.70;99.90;;;;;;5097793;28;20187;-83
2023/07/05 09:06:38;;;;;;;8.85;2.90;;;14.80;99.90;;;;;;5100741;28;20616;-83
2023/07/05 09:09:34;;;;;;;5.55;2.85;;;15.00;99.90;;;;;;5101190;28;20177;-83
2023/07/05 09:12:07;;;;;;;5.63;2.58;;;15.10;99.90;;;;;;5118655;28;20219;-83
2023/07/05 09:14:44;;;;;;;3.67;2.67;;;15.10;99.90;;;;;;5100981;28;20180;-83
2023/07/05 09:17:16;;;;;;;6.88;2.40;;;15.20;99.90;;;;;;5100832;28;20192;-83
2023/07/05 09:20:10;;;;;;;7.32;2.95;;;15.20;99.90;;;;;;5101076;28;20520;-83
2023/07/05 09:22:38;;;;;;;5.78;2.95;;;15.30;99.90;;;;;;5080314;28;20647;-83
2023/07/05 09:25:08;;;;;;;3.88;2.53;;;15.30;84.00;;;;;;5119666;28;20191;-83
2023/07/05 09:27:40;;;;;;;6.22;2.80;;;15.30;99.90;;;;;;5101089;28;20660;-83
2023/07/05 09:30:13;;;;;;;4.43;2.70;;;15.30;98.20;;;;;;5100808;28;20180;-83
2023/07/05 09:32:41;;;;;;;3.97;2.67;;;15.30;99.90;;;;;;5100866;28;20225;-84
2023/07/05 09:35:16;;;;;;;3.15;2.42;;;15.30;53.10;;;;;;5119649;28;20164;-83
2023/07/05 09:38:01;;;;;;;9.10;3.25;;;15.30;99.90;;;;;;5100635;28;20676;-83
2023/07/05 09:40:31;;;;;;;4.72;2.90;;;15.30;12.70;;;;;;5100909;28;20211;-86
2023/07/05 09:43:06;;;;;;;5.50;2.67;;;15.40;1.00;;;;;;5119287;28;20644;-84
2023/07/05 09:45:32;;;;;;;7.05;2.90;;;15.40;1.00;;;;;;5101129;28;20243;-83
2023/07/05 09:48:00;;;;;;;7.47;3.20;;;15.50;22.70;;;;;;5119450;28;20247;-84
2023/07/05 09:50:26;;;;;;;7.40;2.63;;;15.60;24.20;;;;;;5101244;28;20200;-83
2023/07/05 09:53:16;;;;;;;7.13;2.85;;;15.70;1.00;;;;;;5119383;28;20651;-84
2023/07/05 09:56:27;;;;;;;3.72;2.70;;;15.80;1.00;;;;;;5071082;28;20184;-83
2023/07/05 09:59:12;;;;;;;4.90;2.83;;;16.20;1.00;;;;;;5016467;28;20183;-84
2023/07/05 10:01:41;;;;;;;8.15;2.95;;;16.60;1.00;;;;;;5016557;28;20313;-83
2023/07/05 10:04:08;;;;;;;4.85;2.70;;;17.10;1.00;;;;;;5073827;28;20380;-83
2023/07/05 10:06:38;;;;;;;6.65;2.65;;;17.50;1.00;;;;;;5119330;28;20231;-83
2023/07/05 10:09:19;;;;;;;6.15;2.60;;;17.50;1.00;;;;;;5119935;28;20153;-83
2023/07/05 10:11:52;;;;;;;5.95;2.60;;;17.80;99.90;;;;;;5101024;28;20200;-84
2023/07/05 10:14:27;;;;;;;10.00;2.78;;;17.80;99.90;;;;;;5100491;28;20175;-83
2023/07/05 10:17:06;;;;;;;8.35;2.47;;;17.90;1.00;;;;;;5099266;28;20205;-83
2023/07/05 10:19:51;;;;;;;7.35;2.65;;;17.90;1.00;;;;;;5100166;28;20168;-83
2023/07/05 10:22:26;;;;;;;6.55;2.97;;;18.00;1.00;;;;;;5118844;28;20195;-83
2023/07/05 10:24:57;;;;;;;4.55;2.67;;;17.80;99.90;;;;;;5119277;28;20171;-83
2023/07/05 10:27:44;;;;;;;7.15;2.92;;;17.50;1.00;;;;;;5103634;28;20200;-83
2023/07/05 10:30:15;;;;;;;7.50;3.13;;;17.60;99.90;;;;;;5107146;28;20219;-84
2023/07/05 10:32:43;;;;;;;6.07;2.60;;;17.60;1.00;;;;;;5104650;28;20168;-84
2023/07/05 10:35:46;;;;;;;5.05;2.50;;;17.50;99.90;;;;;;5104085;28;20218;-87
2023/07/05 10:38:24;;;;;;;6.15;2.58;;;17.30;1.00;;;;;;5088148;28;20218;-87
2023/07/05 10:40:52;;;;;;;6.80;2.60;;;17.40;99.90;;;;;;5100847;28;20535;-87
2023/07/05 10:43:18;;;;;;;6.15;2.75;;;17.20;1.00;;;;;;5118262;28;20156;-87
2023/07/05 10:45:44;;;;;;;4.95;2.90;;;17.10;1.00;;;;;;5100028;28;20180;-87
2023/07/05 10:48:24;;;;;;;5.63;2.55;;;17.00;99.90;;;;;;5118606;28;20707;-82
2023/07/05 10:50:50;;;;;;;10.93;2.60;;;17.00;1.00;;;;;;5119476;28;20192;-82
2023/07/05 10:53:20;;;;;;;5.38;2.80;;;16.90;99.90;;;;;;5100600;28;20173;-82
2023/07/05 10:55:50;;;;;;;9.10;2.58;;;16.90;1.00;;;;;;5100425;28;20188;-81
2023/07/05 10:58:18;;;;;;;6.32;2.83;;;16.90;1.00;;;;;;5100511;28;20176;-81
2023/07/05 11:01:10;;;;;;;7.25;2.70;;;17.00;1.00;;;;;;5099973;28;20176;-80
2023/07/05 11:03:51;;;;;;;8.82;2.60;;;17.10;1.00;;;;;;5099555;28;20176;-80
2023/07/05 11:06:19;;;;;;;4.35;2.83;;;17.20;1.00;;;;;;5099641;28;20579;-82
2023/07/05 11:08:45;;;;;;;6.30;3.05;;;17.10;99.90;;;;;;5099469;28;20226;-82
2023/07/05 11:11:20;;;;;;;4.22;2.55;;;17.00;99.90;;;;;;5098881;28;20200;-82
2023/07/05 11:13:47;;;;;;;6.70;2.90;;;17.20;99.90;;;;;;5117544;28;20617;-82
2023/07/05 11:16:23;;;;;;;7.93;2.75;;;17.70;81.50;;;;;;5099115;28;20196;-83
2023/07/05 11:18:52;;;;;;;9.38;2.58;;;18.10;1.00;;;;;;5099547;28;20204;-80
2023/07/05 11:21:44;;;;;;;6.32;2.85;;;18.30;1.00;;;;;;5099525;28;20247;-82
2023/07/05 11:24:11;;;;;;;7.65;2.97;;;18.40;99.90;;;;;;5099147;28;20192;-83
2023/07/05 11:27:22;;;;;;;7.00;2.42;;;18.50;1.00;;;;;;5116686;28;20570;-82
2023/07/05 11:29:51;;;;;;;10.50;3.05;;;18.60;1.00;;;;;;5099026;28;20321;-83
2023/07/05 11:32:18;;;;;;;6.80;2.70;;;18.60;1.00;;;;;;5117249;28;20212;-83
2023/07/05 11:34:54;;;;;;;6.18;2.28;;;18.80;1.00;;;;;;5117100;28;20172;-83
2023/07/05 11:37:22;;;;;;;8.70;2.47;;;19.10;65.00;;;;;;5099144;28;20192;-82
2023/07/05 11:39:50;;;;;;;8.70;2.95;;;19.10;1.00;;;;;;5100388;28;20586;-81
2023/07/05 11:42:15;;;;;;;6.05;2.90;;;19.00;1.00;;;;;;5104155;28;20271;-82
2023/07/05 11:44:47;;;;;;;10.93;2.80;;;19.00;1.00;;;;;;5100912;28;20208;-82
2023/07/05 11:47:25;;;;;;;6.03;3.00;;;18.90;1.00;;;;;;5108889;28;20604;-82
2023/07/05 11:50:09;;;;;;;6.22;2.35;;;19.00;1.00;;;;;;5123642;28;20195;-82
2023/07/05 11:53:00;;;;;;;5.45;2.55;;;19.00;99.90;;;;;;5105812;28;20215;-81
2023/07/05 11:55:44;;;;;;;8.30;2.97;;;18.80;90.40;;;;;;5102605;28;20175;-81
2023/07/05 11:58:17;;;;;;;5.78;2.53;;;18.80;99.90;;;;;;5105173;28;20221;-83
2023/07/05 12:00:48;;;;;;;6.88;2.92;;;18.80;99.90;;;;;;5124010;28;20577;-81
2023/07/05 12:03:18;;;;;;;5.32;2.55;;;18.90;1.00;;;;;;5099998;28;20169;-83
2023/07/05 12:06:12;;;;;;;5.25;2.67;;;19.10;99.90;;;;;;5100420;28;20176;-82
2023/07/05 12:08:58;;;;;;;5.68;2.55;;;19.20;99.90;;;;;;5088596;28;20191;-82
2023/07/05 12:11:32;;;;;;;6.22;2.40;;;19.40;1.00;;;;;;5118849;28;20268;-83
2023/07/05 12:14:03;;;;;;;6.20;2.35;;;19.40;1.00;;;;;;5098070;28;20176;-81
2023/07/05 12:16:29;;;;;;;8.50;2.63;;;19.40;1.00;;;;;;5116020;28;20188;-83
2023/07/05 12:18:55;;;;;;;6.70;2.72;;;19.40;99.90;;;;;;5097682;28;20586;-83
2023/07/05 12:21:21;;;;;;;4.80;2.30;;;19.60;99.90;;;;;;5097533;28;20580;-84
2023/07/05 12:23:52;;;;;;;7.32;2.55;;;19.90;1.00;;;;;;5115997;28;20188;-83
2023/07/05 12:26:31;;;;;;;10.10;2.67;;;19.80;1.00;;;;;;5097755;28;20196;-83
2023/07/05 12:29:29;;;;;;;7.15;2.53;;;19.30;18.30;;;;;;5097042;28;20213;-84
2023/07/05 12:32:09;;;;;;;7.50;2.42;;;19.40;99.90;;;;;;5098185;28;20204;-85
2023/07/05 12:34:35;;;;;;;7.45;2.70;;;19.70;1.00;;;;;;5097679;28;20194;-84
2023/07/05 12:37:10;;;;;;;7.60;2.40;;;20.00;1.00;;;;;;5115793;28;20672;-84
2023/07/05 12:39:43;;;;;;;6.95;2.30;;;19.90;1.00;;;;;;5096869;28;20172;-82
2023/07/05 12:42:12;;;;;;;6.85;2.40;;;20.00;1.00;;;;;;5097591;28;20173;-84
2023/07/05 12:44:40;;;;;;;6.97;2.40;;;20.20;12.00;;;;;;5097488;28;20176;-84
2023/07/05 12:47:17;;;;;;;9.75;2.75;;;20.50;16.50;;;;;;5097542;28;20562;-83
2023/07/05 12:49:43;;;;;;;12.07;2.17;;;20.70;99.90;;;;;;5097351;28;20176;-84
2023/07/05 12:52:18;;;;;;;13.55;2.67;;;20.70;1.00;;;;;;5097434;28;20680;-83
2023/07/05 12:54:44;;;;;;;8.52;2.75;;;20.60;1.00;;;;;;5097527;28;20164;-84
2023/07/05 12:57:20;;;;;;;12.38;2.97;;;20.50;1.00;;;;;;5097688;28;20203;-83
2023/07/05 12:59:47;;;;;;;7.95;2.40;;;20.30;99.90;;;;;;5097679;28;20187;-85
2023/07/05 13:02:24;;;;;;;6.53;2.22;;;20.50;1.00;;;;;;5097451;28;20188;-84
2023/07/05 13:04:50;;;;;;;7.32;2.55;;;20.40;1.00;;;;;;5097375;28;20164;-83
2023/07/05 13:07:21;;;;;;;11.32;3.22;;;20.10;1.00;;;;;;5098070;28;20200;-84
2023/07/05 13:09:47;;;;;;;8.00;2.70;;;19.70;1.00;;;;;;5097518;28;20172;-83